Time;durP1;ratioP1;P1;durP2;ratioP2;P2;SDS_P1;SDS_P2;PMS_P1;PMS_P2;Temp;Humidity;BMP_temperature;BMP_pressure;BME280_temperature;BME280_humidity;BME280_pressure;Samples;Min_cycle;Max_cycle;Signal;HPM_P1;HPM_P2
2022/10/10 00:01:50;;;;;;;8.95;7.85;;;;;;;15.16;52.29;94589.31;5087317;28;20023;-77
2022/10/10 00:04:15;;;;;;;9.80;8.25;;;;;;;14.85;52.26;94544.09;5087454;27;20403;-76
2022/10/10 00:06:40;;;;;;;11.82;8.80;;;;;;;15.08;52.30;94588.25;5085056;28;20016;-77
2022/10/10 00:09:06;;;;;;;10.93;8.02;;;;;;;15.00;52.33;94575.72;5095815;28;20031;-77
2022/10/10 00:11:31;;;;;;;9.18;7.32;;;;;;;15.10;52.31;94606.72;5087093;28;20028;-78
2022/10/10 00:13:57;;;;;;;9.38;8.48;;;;;;;14.96;52.47;94580.91;5089428;28;20598;-77
2022/10/10 00:16:23;;;;;;;11.15;8.23;;;;;;;15.13;52.41;94608.72;5087303;28;20473;-77
2022/10/10 00:18:48;;;;;;;11.07;7.82;;;;;;;15.10;52.36;94601.34;5088206;28;20027;-77
2022/10/10 00:21:14;;;;;;;9.70;7.88;;;;;;;15.04;52.30;94582.78;5084113;28;20562;-78
2022/10/10 00:23:40;;;;;;;17.73;8.52;;;;;;;14.92;52.28;94573.81;5090522;28;20111;-77
2022/10/10 00:26:06;;;;;;;9.13;7.72;;;;;;;15.06;52.24;94592.38;5084956;28;20573;-76
2022/10/10 00:28:31;;;;;;;9.10;8.15;;;;;;;14.79;52.51;94553.41;5084738;28;20031;-77
2022/10/10 00:30:57;;;;;;;8.10;7.30;;;;;;;14.97;52.55;94581.69;5091865;27;20035;-76
2022/10/10 00:33:22;;;;;;;10.32;7.50;;;;;;;14.81;52.53;94568.06;5091419;28;20114;-77
2022/10/10 00:35:48;;;;;;;9.50;7.75;;;;;;;14.89;52.37;94577.16;5087777;27;20020;-77
2022/10/10 00:38:13;;;;;;;11.07;7.93;;;;;;;14.83;52.38;94576.56;5089994;27;20016;-76
2022/10/10 00:40:49;;;;;;;8.48;7.53;;;;;;;14.93;52.66;94592.25;5085530;27;20491;-77
2022/10/10 00:43:15;;;;;;;7.82;6.78;;;;;;;14.55;52.45;94532.56;5090308;27;20534;-77
2022/10/10 00:45:43;;;;;;;9.27;7.38;;;;;;;14.80;52.69;94576.41;5088986;28;20023;-77
2022/10/10 00:48:19;;;;;;;9.55;7.57;;;;;;;14.70;52.33;94566.06;5090066;27;20019;-77
2022/10/10 00:50:49;;;;;;;8.95;7.70;;;;;;;14.70;52.43;94576.75;5088665;27;20024;-77
2022/10/10 00:53:19;;;;;;;12.85;7.63;;;;;;;14.76;52.30;94594.22;5090632;28;20561;-77
2022/10/10 00:55:45;;;;;;;9.40;8.00;;;;;;;14.67;52.50;94582.75;5091062;27;20085;-76
2022/10/10 00:58:11;;;;;;;8.70;7.25;;;;;;;14.72;52.55;94595.94;5092043;27;20020;-77
2022/10/10 01:00:36;;;;;;;12.55;7.95;;;;;;;14.48;52.59;94557.09;5090581;27;20032;-76
2022/10/10 01:03:03;;;;;;;12.75;8.43;;;;;;;14.68;52.64;94595.03;5094299;27;20095;-77
2022/10/10 01:05:29;;;;;;;10.95;7.97;;;;;;;14.60;52.43;94581.34;5090044;27;20016;-77
2022/10/10 01:07:54;;;;;;;8.90;7.57;;;;;;;14.56;52.32;94583.09;5091635;27;20073;-76
2022/10/10 01:10:21;;;;;;;8.55;7.50;;;;;;;14.56;52.58;94575.06;5091525;27;20491;-76
2022/10/10 01:13:18;;;;;;;8.10;7.25;;;;;;;14.64;52.54;94591.41;5089993;27;20023;-76
2022/10/10 01:16:00;;;;;;;14.27;8.80;;;;;;;14.57;52.83;94583.88;5089799;27;20027;-77
2022/10/10 01:18:40;;;;;;;8.45;7.28;;;;;;;14.40;52.71;94565.94;5085945;28;20073;-76
2022/10/10 01:21:18;;;;;;;8.43;7.32;;;;;;;14.56;52.75;94607.19;5094055;27;20036;-77
2022/10/10 01:24:09;;;;;;;9.13;7.18;;;;;;;14.56;52.58;94587.69;5088768;27;20024;-77
2022/10/10 01:26:53;;;;;;;9.63;7.72;;;;;;;14.46;52.87;94578.06;5084308;27;20046;-75
2022/10/10 01:29:29;;;;;;;9.80;7.88;;;;;;;14.50;53.27;94591.59;5093164;27;20069;-76
2022/10/10 01:32:04;;;;;;;10.40;8.02;;;;;;;14.47;53.06;94587.63;5089510;27;20031;-75
2022/10/10 01:34:59;;;;;;;9.68;7.38;;;;;;;14.46;53.15;94582.63;5107249;27;20132;-77
2022/10/10 01:37:45;;;;;;;8.67;7.43;;;;;;;14.46;53.05;94588.75;5079204;27;20086;-76
2022/10/10 01:40:28;;;;;;;8.57;7.68;;;;;;;14.46;53.39;94587.97;5088106;27;20355;-75
2022/10/10 01:42:58;;;;;;;10.52;8.02;;;;;;;14.51;53.00;94595.84;5090258;27;20020;-76
2022/10/10 01:45:25;;;;;;;9.65;7.30;;;;;;;14.46;53.06;94587.97;5094436;27;20394;-75
2022/10/10 01:47:54;;;;;;;8.45;7.07;;;;;;;14.50;53.20;94580.88;5089808;27;20024;-76
2022/10/10 01:50:25;;;;;;;8.55;7.30;;;;;;;14.48;53.31;94575.84;5096909;28;20555;-75
2022/10/10 01:53:14;;;;;;;7.05;5.90;;;;;;;14.53;52.84;94590.94;5091588;27;20126;-75
2022/10/10 01:55:45;;;;;;;8.50;6.80;;;;;;;14.54;52.99;94584.50;5091857;27;20039;-76
2022/10/10 01:58:17;;;;;;;8.95;6.88;;;;;;;14.51;52.95;94587.81;5091926;27;20053;-77
2022/10/10 02:00:49;;;;;;;8.82;7.75;;;;;;;14.43;52.89;94570.66;5089984;27;20034;-76
2022/10/10 02:03:30;;;;;;;10.35;7.13;;;;;;;14.41;52.85;94567.53;5088683;27;20042;-76
2022/10/10 02:06:25;;;;;;;7.80;6.60;;;;;;;14.51;53.17;94596.63;5090743;27;20034;-75
2022/10/10 02:08:57;;;;;;;8.18;6.95;;;;;;;14.49;52.92;94598.03;5090056;27;20031;-75
2022/10/10 02:11:24;;;;;;;9.95;6.78;;;;;;;14.29;53.01;94564.69;5090156;27;20357;-76
2022/10/10 02:14:05;;;;;;;8.93;6.53;;;;;;;14.45;52.99;94592.53;5089110;27;20024;-76
2022/10/10 02:16:35;;;;;;;12.65;6.72;;;;;;;14.26;53.00;94562.66;5091319;27;20051;-76
2022/10/10 02:19:05;;;;;;;7.22;6.13;;;;;;;14.44;52.45;94600.88;5095011;27;20472;-76
2022/10/10 02:21:31;;;;;;;8.00;6.80;;;;;;;14.32;52.93;94598.88;5091395;27;20394;-76
2022/10/10 02:24:03;;;;;;;8.75;6.70;;;;;;;14.36;53.03;94609.72;5088500;27;20024;-76
2022/10/10 02:26:30;;;;;;;9.13;6.68;;;;;;;14.35;52.87;94608.13;5086330;27;20016;-76
2022/10/10 02:28:57;;;;;;;10.68;6.65;;;;;;;14.18;52.93;94582.97;5087910;28;20046;-75
2022/10/10 02:31:35;;;;;;;11.68;7.50;;;;;;;14.32;53.00;94608.78;5087161;27;20030;-76
2022/10/10 02:34:10;;;;;;;8.85;7.80;;;;;;;14.25;53.13;94590.53;5097697;27;20042;-76
2022/10/10 02:36:37;;;;;;;10.85;7.55;;;;;;;14.17;53.56;94588.66;5087485;28;20044;-76
2022/10/10 02:39:05;;;;;;;10.32;8.15;;;;;;;14.30;53.43;94606.41;5090558;27;20038;-75
2022/10/10 02:41:32;;;;;;;8.93;7.57;;;;;;;14.31;53.27;94608.00;5088948;27;20629;-75
2022/10/10 02:43:58;;;;;;;19.27;8.80;;;;;;;14.15;53.39;94580.16;5087812;27;20393;-76
2022/10/10 02:46:23;;;;;;;14.05;8.63;;;;;;;14.26;53.46;94594.78;5089863;27;20024;-76
2022/10/10 02:48:49;;;;;;;11.40;8.18;;;;;;;14.22;53.27;94588.50;5089027;28;20373;-76
2022/10/10 02:51:15;;;;;;;11.57;9.18;;;;;;;14.29;53.49;94599.50;5087267;28;20110;-76
2022/10/10 02:53:40;;;;;;;15.15;8.15;;;;;;;14.27;53.63;94607.06;5086326;27;20043;-75
2022/10/10 02:56:06;;;;;;;11.05;9.57;;;;;;;14.17;53.61;94585.97;5089633;27;20035;-75
2022/10/10 02:58:32;;;;;;;11.05;9.50;;;;;;;14.00;53.61;94564.59;5089001;28;20034;-76
2022/10/10 03:00:57;;;;;;;14.82;9.13;;;;;;;14.16;53.58;94590.53;5088192;27;20485;-76
2022/10/10 03:03:23;;;;;;;10.00;8.70;;;;;;;14.10;53.41;94582.97;5088227;27;20023;-76
2022/10/10 03:05:48;;;;;;;9.57;8.07;;;;;;;14.10;53.04;94582.97;5087659;27;20023;-78
2022/10/10 03:08:14;;;;;;;12.07;9.70;;;;;;;14.13;53.29;94604.53;5091035;27;20022;-77
2022/10/10 03:10:39;;;;;;;10.93;8.82;;;;;;;14.06;53.08;94590.06;5086613;27;20036;-78
2022/10/10 03:13:05;;;;;;;8.75;7.70;;;;;;;14.12;53.08;94608.34;5088227;27;20457;-76
2022/10/10 03:15:30;;;;;;;11.82;8.98;;;;;;;13.99;53.18;94584.41;5088713;27;20133;-77
2022/10/10 03:17:55;;;;;;;10.77;8.63;;;;;;;13.95;52.95;94589.59;5089136;27;20024;-77
2022/10/10 03:20:21;;;;;;;10.25;8.07;;;;;;;13.99;53.04;94595.88;5090382;27;20038;-77
2022/10/10 03:22:46;;;;;;;9.73;8.73;;;;;;;13.89;53.23;94595.41;5088790;27;20020;-77
2022/10/10 03:25:11;;;;;;;13.38;9.25;;;;;;;13.94;53.25;94605.94;5086014;27;20023;-77
2022/10/10 03:27:37;;;;;;;9.90;8.68;;;;;;;14.00;53.10;94607.38;5090200;28;20437;-77
2022/10/10 03:30:03;;;;;;;11.27;8.75;;;;;;;13.98;52.90;94612.25;5086419;27;20118;-77
2022/10/10 03:32:29;;;;;;;13.05;7.95;;;;;;;13.78;53.00;94591.50;5088168;27;20012;-77
2022/10/10 03:34:54;;;;;;;11.23;9.50;;;;;;;13.75;52.77;94598.25;5086685;27;20073;-78
2022/10/10 03:37:20;;;;;;;11.13;9.02;;;;;;;13.68;53.03;94589.91;5086715;28;20757;-77
2022/10/10 03:39:45;;;;;;;12.27;9.15;;;;;;;13.70;52.93;94599.19;5086654;27;20020;-77
2022/10/10 03:42:10;;;;;;;10.95;8.57;;;;;;;13.57;52.87;94583.25;5086899;28;20015;-77
2022/10/10 03:44:36;;;;;;;10.15;8.93;;;;;;;13.30;53.03;94550.34;5084495;28;20434;-77
2022/10/10 03:47:01;;;;;;;13.90;9.23;;;;;;;13.55;52.85;94602.28;5086735;27;20031;-77
2022/10/10 03:49:26;;;;;;;10.77;9.18;;;;;;;13.61;53.15;94616.31;5085946;27;20438;-78
2022/10/10 03:51:52;;;;;;;11.55;8.68;;;;;;;13.60;52.88;94620.06;5086601;28;20039;-77
2022/10/10 03:54:18;;;;;;;13.70;9.50;;;;;;;13.60;52.97;94625.41;5088888;27;20028;-78
2022/10/10 03:56:43;;;;;;;10.15;8.65;;;;;;;13.54;52.71;94616.75;5089987;27;20052;-77
2022/10/10 03:59:09;;;;;;;11.68;9.00;;;;;;;13.50;52.75;94618.47;5086069;27;20024;-79
2022/10/10 04:01:34;;;;;;;10.40;8.40;;;;;;;13.54;52.82;94622.09;5088107;28;20032;-78
2022/10/10 04:03:59;;;;;;;12.40;9.23;;;;;;;13.51;52.64;94633.41;5094502;28;20093;-77
2022/10/10 04:06:26;;;;;;;11.75;8.77;;;;;;;13.40;53.06;94609.97;5088966;28;20020;-77
2022/10/10 04:08:51;;;;;;;12.23;9.02;;;;;;;13.35;53.11;94608.19;5085987;28;20534;-77
2022/10/10 04:11:17;;;;;;;11.02;9.40;;;;;;;13.17;53.07;94586.00;5087839;28;20027;-77
2022/10/10 04:13:42;;;;;;;11.00;9.07;;;;;;;13.41;53.25;94632.91;5087017;28;20023;-78
2022/10/10 04:16:07;;;;;;;11.45;9.27;;;;;;;12.89;53.10;94564.09;5088373;28;20126;-77
2022/10/10 04:18:33;;;;;;;11.23;8.90;;;;;;;13.29;53.44;94636.97;5087327;28;20503;-76
2022/10/10 04:21:05;;;;;;;9.05;8.10;;;;;;;13.20;53.12;94617.44;5086816;28;20024;-77
2022/10/10 04:23:31;;;;;;;12.15;7.93;;;;;;;13.28;53.41;94639.94;5085401;28;20499;-77
2022/10/10 04:25:56;;;;;;;11.88;7.32;;;;;;;13.17;53.22;94617.28;5089034;28;20031;-77
2022/10/10 04:28:22;;;;;;;9.15;8.07;;;;;;;13.11;53.47;94610.47;5088825;28;20105;-76
2022/10/10 04:30:47;;;;;;;8.50;7.35;;;;;;;13.22;53.56;94625.16;5087796;28;20062;-77
2022/10/10 04:33:13;;;;;;;10.98;7.28;;;;;;;12.82;53.34;94568.28;5085261;28;20161;-78
2022/10/10 04:35:38;;;;;;;9.95;8.40;;;;;;;13.07;53.46;94604.19;5088908;28;20089;-77
2022/10/10 04:38:05;;;;;;;14.15;8.45;;;;;;;13.09;53.53;94605.47;5088547;28;20077;-77
2022/10/10 04:40:30;;;;;;;9.43;7.75;;;;;;;13.02;53.66;94601.66;5095752;28;20035;-77
2022/10/10 04:42:56;;;;;;;16.67;9.35;;;;;;;13.15;53.60;94625.59;5087751;28;20024;-78
2022/10/10 04:45:25;;;;;;;11.35;8.50;;;;;;;13.03;53.65;94619.25;5087995;28;20023;-77
2022/10/10 04:47:52;;;;;;;10.60;8.48;;;;;;;12.93;53.88;94600.84;5086693;28;20020;-77
2022/10/10 04:50:18;;;;;;;9.20;7.72;;;;;;;13.11;54.00;94629.19;5085507;28;20051;-77
2022/10/10 04:52:43;;;;;;;12.10;9.90;;;;;;;13.08;53.98;94630.59;5087509;28;20511;-77
2022/10/10 04:55:08;;;;;;;10.68;8.60;;;;;;;12.97;54.13;94612.47;5089657;28;20024;-77
2022/10/10 04:57:34;;;;;;;12.68;8.82;;;;;;;13.04;54.03;94629.66;5085685;28;20438;-77
2022/10/10 04:59:59;;;;;;;11.95;9.80;;;;;;;13.03;54.41;94633.41;5088155;28;20122;-77
2022/10/10 05:02:25;;;;;;;12.55;9.73;;;;;;;13.08;54.62;94632.47;5086215;28;20483;-77
2022/10/10 05:04:50;;;;;;;11.00;9.32;;;;;;;13.12;54.85;94636.09;5088805;28;20138;-77
2022/10/10 05:07:15;;;;;;;15.43;10.48;;;;;;;13.14;54.87;94629.38;5089225;28;20112;-77
2022/10/10 05:09:41;;;;;;;13.13;10.73;;;;;;;13.24;54.72;94639.00;5083978;28;20474;-77
2022/10/10 05:12:06;;;;;;;13.85;10.55;;;;;;;13.18;54.79;94629.53;5085761;28;20032;-77
2022/10/10 05:14:31;;;;;;;12.40;9.40;;;;;;;13.19;54.82;94631.13;5087156;28;20404;-77
2022/10/10 05:16:57;;;;;;;15.52;10.65;;;;;;;13.32;54.92;94646.22;5088617;27;20439;-76
2022/10/10 05:19:22;;;;;;;13.70;10.48;;;;;;;13.23;54.95;94626.72;5092329;27;20114;-77
2022/10/10 05:21:48;;;;;;;16.23;11.15;;;;;;;13.32;54.88;94638.22;5091461;27;20023;-77
2022/10/10 05:24:13;;;;;;;16.23;13.43;;;;;;;13.27;55.48;94622.34;5090718;27;20032;-76
2022/10/10 05:26:38;;;;;;;19.40;13.55;;;;;;;13.37;55.75;94643.41;5088617;27;20023;-76
2022/10/10 05:29:05;;;;;;;18.65;14.32;;;;;;;13.38;55.55;94642.34;5090179;27;20524;-77
2022/10/10 05:31:30;;;;;;;19.23;13.90;;;;;;;13.41;55.64;94639.03;5090640;27;20431;-76
2022/10/10 05:33:55;;;;;;;21.45;13.73;;;;;;;13.50;55.74;94647.06;5091403;27;20384;-77
2022/10/10 05:36:21;;;;;;;25.55;15.30;;;;;;;13.54;56.00;94662.19;5088635;27;20379;-77
2022/10/10 05:38:46;;;;;;;24.50;15.85;;;;;;;13.51;55.94;94643.28;5091027;27;20059;-76
2022/10/10 05:41:12;;;;;;;25.77;16.33;;;;;;;13.62;56.05;94660.66;5090710;27;20031;-77
2022/10/10 05:43:37;;;;;;;20.98;14.77;;;;;;;13.67;55.82;94661.31;5089702;27;20032;-77
2022/10/10 05:46:03;;;;;;;23.52;15.70;;;;;;;13.79;55.79;94683.97;5089875;27;20376;-77
2022/10/10 05:48:29;;;;;;;22.10;15.95;;;;;;;13.83;55.73;94676.91;5086306;27;20114;-77
2022/10/10 05:50:57;;;;;;;23.00;15.93;;;;;;;13.78;55.54;94669.03;5089707;28;20500;-77
2022/10/10 05:53:24;;;;;;;24.45;16.20;;;;;;;13.87;55.60;94673.28;5090194;27;20041;-77
2022/10/10 05:55:49;;;;;;;19.80;15.90;;;;;;;13.95;55.74;94677.06;5089061;27;20020;-77
2022/10/10 05:58:15;;;;;;;20.58;15.02;;;;;;;14.03;55.37;94682.41;5087840;27;20427;-77
2022/10/10 06:00:42;;;;;;;23.38;17.10;;;;;;;13.92;55.86;94658.97;5086623;27;20462;-77
2022/10/10 06:03:11;;;;;;;17.70;15.63;;;;;;;14.02;55.90;94669.38;5088436;27;20106;-77
2022/10/10 06:05:37;;;;;;;20.35;16.33;;;;;;;14.16;55.80;94686.06;5089910;27;20020;-77
2022/10/10 06:08:02;;;;;;;20.00;15.35;;;;;;;14.21;55.76;94683.22;5093014;27;20452;-77
2022/10/10 06:10:28;;;;;;;27.25;18.35;;;;;;;13.50;55.67;94575.69;5087914;27;20023;-77
2022/10/10 06:12:53;;;;;;;25.55;17.70;;;;;;;14.30;55.94;94685.91;5093100;27;20551;-77
2022/10/10 06:15:18;;;;;;;29.17;18.77;;;;;;;14.28;56.04;94672.03;5089404;27;20271;-78
2022/10/10 06:17:44;;;;;;;26.25;17.05;;;;;;;14.29;55.97;94669.06;5090402;27;20578;-77
2022/10/10 06:20:09;;;;;;;22.65;17.42;;;;;;;14.00;55.79;94624.22;5086692;27;20024;-76
2022/10/10 06:22:35;;;;;;;22.85;17.83;;;;;;;14.51;55.46;94687.63;5090176;27;20439;-77
2022/10/10 06:25:00;;;;;;;25.70;17.20;;;;;;;14.36;55.47;94647.97;5089219;27;20032;-77
2022/10/10 06:27:25;;;;;;;21.85;17.17;;;;;;;14.53;55.24;94693.47;5090439;27;20058;-80
2022/10/10 06:29:51;;;;;;;26.85;18.05;;;;;;;14.51;55.21;94676.13;5086178;27;20502;-80
2022/10/10 06:32:16;;;;;;;24.23;17.30;;;;;;;14.72;55.44;94711.09;5085868;27;20042;-81
2022/10/10 06:34:41;;;;;;;24.38;19.35;;;;;;;14.46;55.36;94689.69;5077079;27;20023;-81
2022/10/10 06:37:07;;;;;;;26.05;18.75;;;;;;;14.45;55.38;94672.84;5087005;27;20024;-80
2022/10/10 06:39:33;;;;;;;23.17;19.52;;;;;;;14.66;55.35;94694.44;5089200;27;20569;-80
2022/10/10 06:41:58;;;;;;;26.85;19.23;;;;;;;14.59;55.25;94678.81;5078902;28;20088;-80
2022/10/10 06:44:23;;;;;;;23.83;16.77;;;;;;;14.73;54.78;94696.59;5087850;28;20106;-81
2022/10/10 06:46:49;;;;;;;23.90;17.50;;;;;;;14.83;54.66;94710.44;5088723;27;20073;-79
2022/10/10 06:49:14;;;;;;;27.00;18.10;;;;;;;14.75;54.76;94689.06;5084178;27;20742;-79
2022/10/10 06:51:39;;;;;;;26.83;17.38;;;;;;;14.79;54.79;94687.31;5087440;27;20026;-80
2022/10/10 06:54:05;;;;;;;25.55;18.15;;;;;;;14.75;54.76;94675.66;5089510;27;20044;-80
2022/10/10 06:56:31;;;;;;;26.67;17.80;;;;;;;14.89;54.56;94697.69;5089466;27;20040;-80
2022/10/10 06:58:56;;;;;;;28.33;17.67;;;;;;;14.79;54.64;94687.31;5089183;27;20101;-80
2022/10/10 07:01:24;;;;;;;24.65;16.83;;;;;;;14.99;54.44;94716.09;5086929;27;20036;-80
2022/10/10 07:03:49;;;;;;;21.05;16.77;;;;;;;14.89;54.64;94689.66;5086596;27;20416;-80
2022/10/10 07:06:15;;;;;;;19.40;15.85;;;;;;;15.07;54.76;94693.06;5088653;27;20103;-80
2022/10/10 07:08:41;;;;;;;25.30;16.67;;;;;;;15.28;54.73;94718.84;5086885;27;20028;-80
2022/10/10 07:11:07;;;;;;;22.90;15.52;;;;;;;15.18;54.08;94695.09;5094869;27;20383;-80
2022/10/10 07:13:34;;;;;;;26.17;13.55;;;;;;;15.30;53.61;94702.47;5089305;27;20114;-79
2022/10/10 07:16:00;;;;;;;21.92;15.02;;;;;;;15.38;53.67;94715.03;5088450;27;20321;-80
2022/10/10 07:18:26;;;;;;;21.63;13.88;;;;;;;15.22;53.79;94685.28;5084420;27;20480;-80
2022/10/10 07:20:59;;;;;;;17.20;12.50;;;;;;;15.23;53.31;94676.16;5088718;27;20024;-80
2022/10/10 07:23:25;;;;;;;18.48;12.85;;;;;;;15.31;53.20;94693.28;5089213;27;20412;-80
2022/10/10 07:25:57;;;;;;;14.65;13.02;;;;;;;15.48;53.92;94708.56;5084827;27;20020;-80
2022/10/10 07:28:22;;;;;;;16.60;13.38;;;;;;;15.48;53.83;94687.13;5086923;28;20061;-80
2022/10/10 07:30:47;;;;;;;15.30;11.23;;;;;;;15.44;52.58;94701.19;5088464;27;20027;-81
2022/10/10 07:33:14;;;;;;;14.88;9.73;;;;;;;15.49;52.62;94705.56;5089647;27;20024;-80
2022/10/10 07:35:40;;;;;;;21.23;13.75;;;;;;;15.47;53.03;94699.72;5085170;27;20453;-80
2022/10/10 07:38:06;;;;;;;21.92;13.52;;;;;;;15.65;53.05;94713.84;5088013;27;20038;-79
2022/10/10 07:40:31;;;;;;;21.85;15.20;;;;;;;15.61;53.37;94716.38;5088143;27;20729;-80
2022/10/10 07:42:58;;;;;;;28.17;15.25;;;;;;;15.52;53.66;94688.84;5085598;27;20508;-80
2022/10/10 07:45:23;;;;;;;23.50;15.48;;;;;;;15.63;53.77;94695.41;5087206;27;20020;-80
2022/10/10 07:47:51;;;;;;;28.73;16.98;;;;;;;15.71;53.81;94699.94;5087949;27;20036;-80
2022/10/10 07:50:17;;;;;;;24.17;15.43;;;;;;;15.17;53.33;94623.84;5088354;28;20024;-81
2022/10/10 07:52:42;;;;;;;23.90;15.45;;;;;;;15.75;53.68;94694.69;5085659;28;20043;-81
2022/10/10 07:55:09;;;;;;;20.67;16.80;;;;;;;15.35;53.91;94619.22;5090294;27;20042;-80
2022/10/10 07:57:35;;;;;;;23.98;16.40;;;;;;;15.65;53.63;94657.53;5086587;28;20028;-81
2022/10/10 08:00:05;;;;;;;16.27;13.77;;;;;;;15.85;53.11;94692.44;5090573;27;20536;-79
2022/10/10 08:02:31;;;;;;;17.90;13.07;;;;;;;15.64;52.66;94662.13;5087825;27;20020;-79
2022/10/10 08:04:56;;;;;;;19.42;12.10;;;;;;;15.60;52.42;94665.75;5095398;27;20023;-80
2022/10/10 08:07:22;;;;;;;17.02;12.00;;;;;;;15.81;52.17;94690.72;5089612;28;20028;-80
2022/10/10 08:09:47;;;;;;;25.00;14.93;;;;;;;15.83;52.63;94685.84;5087868;28;20031;-79
2022/10/10 08:12:12;;;;;;;23.20;14.65;;;;;;;15.87;52.50;94689.44;5081694;28;20058;-80
2022/10/10 08:14:38;;;;;;;24.85;15.02;;;;;;;15.71;52.52;94661.59;5084385;28;20910;-78
2022/10/10 08:17:03;;;;;;;19.75;14.38;;;;;;;15.99;52.67;94692.19;5085175;28;20692;-79
2022/10/10 08:19:28;;;;;;;26.88;16.45;;;;;;;15.79;52.42;94653.50;5087392;28;20027;-80
2022/10/10 08:21:54;;;;;;;23.83;14.60;;;;;;;16.14;52.53;94694.31;5083235;28;20550;-80
2022/10/10 08:24:19;;;;;;;21.67;14.25;;;;;;;16.18;52.35;94684.47;5086276;28;20141;-81
2022/10/10 08:26:45;;;;;;;24.58;14.43;;;;;;;16.29;52.33;94691.03;5084285;28;20081;-79
2022/10/10 08:29:10;;;;;;;23.23;14.93;;;;;;;16.20;51.28;94676.91;5082588;28;20019;-80
2022/10/10 08:31:35;;;;;;;17.55;12.40;;;;;;;16.36;52.17;94689.75;5078423;28;20386;-79
2022/10/10 08:34:01;;;;;;;19.00;11.98;;;;;;;16.33;51.57;94677.75;5084203;28;20028;-82
2022/10/10 08:36:26;;;;;;;16.08;10.75;;;;;;;16.40;50.86;94677.25;5083774;28;20063;-81
2022/10/10 08:38:58;;;;;;;13.95;10.38;;;;;;;16.55;50.79;94676.66;5086413;28;20032;-80
2022/10/10 08:41:30;;;;;;;17.63;10.70;;;;;;;16.38;51.76;94644.59;5085503;28;20043;-80
2022/10/10 08:44:34;;;;;;;15.73;9.75;;;;;;;16.59;50.95;94661.44;5095634;28;20114;-80
2022/10/10 08:47:14;;;;;;;16.75;8.63;;;;;;;16.86;50.20;94701.19;5086846;28;20106;-81
2022/10/10 08:49:48;;;;;;;12.48;8.75;;;;;;;16.87;50.32;94689.28;5088958;28;20028;-81
2022/10/10 08:52:29;;;;;;;10.68;9.18;;;;;;;17.00;50.05;94693.59;5091486;27;20036;-80
2022/10/10 08:54:56;;;;;;;15.02;6.90;;;;;;;17.01;49.35;94689.78;5088511;27;20142;-82
2022/10/10 08:57:39;;;;;;;8.50;6.35;;;;;;;16.97;48.40;94686.19;5088974;27;20096;-80
2022/10/10 09:00:07;;;;;;;10.13;7.15;;;;;;;16.59;47.83;94627.31;5089618;27;20660;-79
2022/10/10 09:02:57;;;;;;;10.05;6.65;;;;;;;17.03;47.74;94692.13;5093358;27;20155;-81
2022/10/10 09:06:09;;;;;;;8.82;5.90;;;;;;;17.14;47.46;94704.88;5098318;27;20028;-80
2022/10/10 09:08:43;;;;;;;7.47;5.78;;;;;;;17.20;48.06;94704.66;5083764;28;20157;-81
2022/10/10 11:40:45;;;;;;;6.95;4.97;;;;;;;17.94;42.88;94484.47;4965884;28;20045;-85
2022/10/10 11:43:40;;;;;;;13.38;4.53;;;;;;;17.90;43.28;94477.41;4966308;28;20042;-85
2022/10/10 11:46:25;;;;;;;7.63;4.40;;;;;;;17.57;42.54;94431.94;4906430;28;20037;-86
2022/10/10 11:49:12;;;;;;;5.53;4.78;;;;;;;17.54;43.30;94416.47;4970912;28;20166;-86
2022/10/10 11:51:58;;;;;;;8.55;5.65;;;;;;;18.95;43.03;94612.63;4969484;28;20512;-85
2022/10/10 11:54:49;;;;;;;6.60;5.22;;;;;;;17.77;42.91;94451.69;4966189;28;20547;-86
2022/10/10 11:57:26;;;;;;;6.45;5.53;;;;;;;18.86;43.16;94615.47;4953438;28;20038;-86
2022/10/10 12:00:14;;;;;;;7.28;5.72;;;;;;;17.84;43.67;94452.69;4966403;28;20153;-86
2022/10/10 12:03:38;;;;;;;7.70;4.45;;;;;;;18.85;42.82;94590.44;4961944;28;20117;-84
2022/10/10 12:06:24;;;;;;;15.48;5.70;;;;;;;17.11;42.50;94349.97;4913899;29;20894;-85
2022/10/10 12:09:06;;;;;;;10.15;4.50;;;;;;;18.69;42.60;94600.38;4898092;29;20679;-86
2022/10/10 12:12:03;;;;;;;6.43;5.07;;;;;;;17.24;43.05;94399.88;4969820;28;20030;-85
2022/10/10 12:14:52;;;;;;;15.10;9.02;;;;;;;18.04;42.77;94516.28;4913647;28;20171;-85
2022/10/10 12:17:44;;;;;;;11.00;9.32;;;;;;;16.97;43.10;94328.81;4950184;28;21338;-85
2022/10/10 12:20:29;;;;;;;20.40;12.82;;;;;;;18.25;43.08;94516.09;4963222;28;20199;-84
2022/10/10 12:23:28;;;;;;;44.78;24.50;;;;;;;18.33;43.15;94511.69;4956153;28;20163;-85
2022/10/10 12:25:57;;;;;;;11.85;9.40;;;;;;;16.69;42.92;94285.81;4970590;28;20820;-85
2022/10/10 12:32:27;;;;;;;;;;;;;;;;;;;;;
2022/10/10 12:34:53;;;;;;;35.33;16.42;;;;;;;18.68;43.58;94574.56;4970059;28;20077;-85
2022/10/10 12:37:25;;;;;;;41.55;23.00;;;;;;;17.96;43.66;94449.94;4960513;28;20022;-86
2022/10/10 12:40:05;;;;;;;30.75;14.70;;;;;;;18.84;43.56;94570.00;4987984;28;20049;-85
2022/10/10 12:42:32;;;;;;;8.45;5.68;;;;;;;18.89;42.52;94577.84;4973176;28;20628;-85
2022/10/10 12:45:07;;;;;;;11.05;6.50;;;;;;;18.85;42.24;94576.97;4992827;28;20124;-85
2022/10/10 12:47:41;;;;;;;8.30;6.22;;;;;;;18.01;42.63;94467.75;4981003;28;20081;-86
2022/10/10 12:50:39;;;;;;;6.03;5.15;;;;;;;17.79;42.52;94415.25;4993820;28;20026;-85
2022/10/10 12:53:29;;;;;;;;;;;;;;;;;;;;;
2022/10/10 12:55:59;;;;;;;8.30;6.00;;;;;;;17.20;42.88;94298.78;4992761;28;20026;-85
2022/10/10 12:58:37;;;;;;;8.40;5.20;;;;;;;18.88;42.47;94562.00;4989904;28;20306;-86
2022/10/10 13:01:21;;;;;;;7.93;5.00;;;;;;;18.01;41.83;94443.53;4979864;28;20026;-86
2022/10/10 13:03:48;;;;;;;6.43;5.00;;;;;;;17.89;41.70;94403.97;4994961;28;20674;-85
2022/10/10 13:06:29;;;;;;;6.00;5.25;;;;;;;18.22;42.15;94462.16;4994015;28;20766;-86
2022/10/10 13:08:55;;;;;;;7.13;5.65;;;;;;;17.65;42.50;94369.13;4992791;28;20031;-86
2022/10/10 13:11:21;;;;;;;6.38;4.88;;;;;;;17.67;42.41;94363.41;4993699;28;20542;-86
2022/10/10 13:13:54;;;;;;;6.53;4.53;;;;;;;18.54;42.48;94489.91;4992476;28;20034;-85
2022/10/10 13:16:22;;;;;;;7.43;4.47;;;;;;;18.37;41.94;94474.88;4978386;28;20492;-85
2022/10/10 13:18:49;;;;;;;14.23;4.53;;;;;;;19.02;42.12;94564.28;4993492;28;20032;-85
2022/10/10 13:21:36;;;;;;;8.07;4.50;;;;;;;18.48;42.37;94470.50;4993109;28;20030;-87
2022/10/10 13:24:15;;;;;;;5.53;4.40;;;;;;;18.13;41.88;94410.41;4971266;28;20061;-85
2022/10/10 13:26:50;;;;;;;5.97;4.95;;;;;;;18.47;42.23;94466.28;4991164;28;20034;-86
2022/10/10 13:29:21;;;;;;;4.93;4.25;;;;;;;19.13;41.92;94560.69;4994301;28;20038;-85
2022/10/10 13:31:48;;;;;;;8.80;4.45;;;;;;;19.10;41.65;94571.41;4974292;28;20038;-85
2022/10/10 13:34:20;;;;;;;5.07;4.57;;;;;;;17.57;42.16;94321.66;4991141;28;20022;-86
2022/10/10 13:36:51;;;;;;;11.23;5.13;;;;;;;18.86;41.73;94535.41;4980911;28;20026;-84
2022/10/10 13:39:22;;;;;;;5.15;4.57;;;;;;;18.01;42.17;94397.78;4993868;28;20054;-88
2022/10/10 13:41:56;;;;;;;8.73;4.65;;;;;;;19.09;41.86;94570.63;4990743;28;20542;-85
2022/10/10 13:44:48;;;;;;;4.63;4.22;;;;;;;17.48;41.36;94312.97;4990918;28;20471;-87
2022/10/10 13:47:42;;;;;;;4.80;4.18;;;;;;;19.15;41.88;94563.84;4991415;28;20380;-86
2022/10/10 13:50:43;;;;;;;6.47;5.40;;;;;;;19.11;41.08;94567.59;4990628;28;20033;-85
2022/10/10 13:53:30;;;;;;;4.72;4.25;;;;;;;19.10;41.10;94561.41;4946408;28;20029;-87
2022/10/10 13:56:08;;;;;;;6.70;4.65;;;;;;;18.08;41.37;94403.34;4989253;28;20476;-85
2022/10/10 13:58:53;;;;;;;5.90;4.60;;;;;;;19.10;41.63;94557.94;4992259;28;20109;-87
2022/10/10 14:09:08;;;;;;;6.45;4.43;;;;;;;19.11;41.36;94554.09;4979410;28;20034;-85
2022/10/10 14:11:44;;;;;;;6.93;4.40;;;;;;;18.65;41.20;94483.66;4988710;28;20021;-86
2022/10/10 14:14:18;;;;;;;6.13;5.03;;;;;;;18.59;41.66;94454.63;4989188;28;20590;-85
2022/10/10 14:17:09;;;;;;;4.82;3.92;;;;;;;19.19;41.16;94575.50;4990759;28;20077;-85
2022/10/10 14:19:34;;;;;;;4.60;4.20;;;;;;;18.23;41.35;94407.19;4990133;28;20140;-85
2022/10/10 14:22:09;;;;;;;6.15;4.75;;;;;;;18.24;41.46;94411.44;4990295;28;20026;-85
2022/10/10 14:24:38;;;;;;;5.07;4.28;;;;;;;18.18;41.93;94407.44;4990947;28;20064;-85
2022/10/10 14:27:13;;;;;;;9.43;4.93;;;;;;;18.30;41.07;94435.06;4989302;28;20029;-86